Winchester, Connecticut
Current Conditions -  °F | °C
As of 3:51 PM on Sunday 21 Dec 2014 (Local Time) from KBDL Reporting Station
Light Snow Light Snow  
Wind Chill: 27°   Ceiling: 1400
Heat Index: 33°   Visibility: 8mi
Dew Point: 29°   Wind: 7mph
Humidity: 85%   Direction: 360°N
Pressure: 30.29"   Gusts: NA
Location:  41.9462°N, 73.0763°W
Report Text: KBDL 212051Z 36006KT 8SM -SN FEW007 OVC014 01/M02 A3029 RMK AO2 SNB50 SLP258 P0000 60000 T00061017 50002 $
Loading
Personal Weather Stations






























Interactive Weather Map New forecast layout! Learn more

10-Day Weather Forecast

Advertisements
Track Severe Weather on mobile